createdAt,value
2018-06-02T00:00:37.659Z,66.10
2018-06-02T00:03:05.185Z,70.33
2018-06-02T00:05:32.712Z,70.53
2018-06-02T00:08:00.711Z,67.07
2018-06-02T00:10:28.220Z,63.27
2018-06-02T00:12:55.730Z,63.97
2018-06-02T00:15:23.264Z,63.77
2018-06-02T00:17:50.773Z,63.37
2018-06-02T00:20:18.325Z,59.50
2018-06-02T00:22:45.849Z,57.73
2018-06-02T00:25:13.366Z,53.13
2018-06-02T00:27:40.898Z,53.87
2018-06-02T00:30:08.406Z,57.00
2018-06-02T00:32:35.943Z,57.40
2018-06-02T00:35:03.474Z,53.07
2018-06-02T00:37:30.992Z,53.37
2018-06-02T00:39:59.047Z,53.70
2018-06-02T00:42:26.562Z,55.07
2018-06-02T00:44:54.090Z,54.50
2018-06-02T00:47:21.623Z,55.87
2018-06-02T00:49:49.150Z,53.13
2018-06-02T00:52:16.650Z,54.57
2018-06-02T00:54:56.470Z,56.10
2018-06-02T00:57:23.974Z,56.23
2018-06-02T00:59:51.492Z,57.80
2018-06-02T01:02:19.027Z,58.67
2018-06-02T01:04:46.564Z,55.83
2018-06-02T01:07:14.079Z,56.63
2018-06-02T01:09:41.613Z,59.00
2018-06-02T01:12:09.126Z,65.17
2018-06-02T01:14:36.668Z,60.37
2018-06-02T01:17:04.187Z,59.63
2018-06-02T01:19:31.714Z,57.93
2018-06-02T01:21:59.237Z,58.77
2018-06-02T01:24:26.746Z,59.57
2018-06-02T01:26:55.235Z,55.40
2018-06-02T01:29:22.738Z,58.67
2018-06-02T01:31:50.486Z,56.03
2018-06-02T01:34:17.994Z,55.30
2018-06-02T01:36:45.512Z,52.50
2018-06-02T01:39:13.047Z,49.60
2018-06-02T01:41:40.764Z,51.90
2018-06-02T01:44:08.455Z,51.50
2018-06-02T01:46:35.958Z,48.70
2018-06-02T01:49:03.481Z,51.03
2018-06-02T01:51:31.015Z,55.30
2018-06-02T01:53:58.526Z,52.50
2018-06-02T01:56:26.043Z,52.70
2018-06-02T01:58:53.584Z,51.97
2018-06-02T02:01:21.258Z,47.10
2018-06-02T02:03:48.771Z,54.60
2018-06-02T02:06:16.279Z,54.00
2018-06-02T02:08:44.182Z,55.47
2018-06-02T02:11:12.877Z,60.13
2018-06-02T02:13:40.400Z,55.87
2018-06-02T02:16:07.948Z,55.70
2018-06-02T02:18:35.455Z,52.97
2018-06-02T02:21:03.094Z,56.67
2018-06-02T02:23:30.607Z,55.60
2018-06-02T02:25:58.124Z,56.10
2018-06-02T02:28:25.670Z,53.17
2018-06-02T02:30:53.174Z,56.23
2018-06-02T02:33:20.680Z,54.77
2018-06-02T02:35:48.215Z,51.87
2018-06-02T02:38:15.753Z,58.20
2018-06-02T02:40:43.266Z,53.73
2018-06-02T02:43:10.790Z,53.70
2018-06-02T02:45:38.298Z,55.40
2018-06-02T02:48:05.974Z,53.33
2018-06-02T02:50:33.496Z,51.77
2018-06-02T02:53:01.003Z,48.60
2018-06-02T02:55:28.791Z,50.20
2018-06-02T02:57:56.303Z,52.23
2018-06-02T03:00:23.842Z,53.40
2018-06-02T03:02:51.375Z,53.77
2018-06-02T03:05:18.895Z,48.90
2018-06-02T03:07:46.431Z,50.00
2018-06-02T03:10:13.946Z,50.47
2018-06-02T03:12:41.481Z,53.00
2018-06-02T03:15:08.999Z,51.03
2018-06-02T03:17:36.538Z,50.10
2018-06-02T03:20:04.154Z,49.53
2018-06-02T03:22:31.643Z,48.60
2018-06-02T03:24:59.153Z,48.70
2018-06-02T03:27:27.599Z,50.17
2018-06-02T03:29:55.113Z,47.60
2018-06-02T03:32:22.632Z,47.77
2018-06-02T03:34:50.182Z,44.57
2018-06-02T03:37:17.697Z,48.43
2018-06-02T03:39:45.211Z,47.90
2018-06-02T03:42:12.742Z,48.37
2018-06-02T03:44:40.242Z,44.07
2018-06-02T03:47:07.775Z,48.70
2018-06-02T03:49:35.273Z,47.50
2018-06-02T03:52:02.811Z,46.57
2018-06-02T03:54:30.314Z,46.80
2018-06-02T03:56:57.846Z,47.50
2018-06-02T03:59:25.403Z,49.33
2018-06-02T04:01:52.932Z,43.40
2018-06-02T04:04:20.462Z,47.87
2018-06-02T04:06:48.422Z,42.90
2018-06-02T04:09:15.939Z,47.50
2018-06-02T04:11:43.460Z,49.27
2018-06-02T04:14:10.990Z,47.23
2018-06-02T04:16:38.494Z,49.30
2018-06-02T04:19:06.035Z,50.47
2018-06-02T04:21:33.546Z,51.30
2018-06-02T04:24:01.540Z,53.73
2018-06-02T04:26:29.061Z,50.20
2018-06-02T04:28:56.588Z,51.03
2018-06-02T04:31:24.120Z,54.10
2018-06-02T04:33:51.626Z,53.40
2018-06-02T04:36:19.154Z,54.57
2018-06-02T04:38:46.666Z,53.57
2018-06-02T04:41:14.192Z,53.43
2018-06-02T04:43:41.791Z,52.53
2018-06-02T04:46:09.321Z,58.70
2018-06-02T04:48:36.970Z,53.50
2018-06-02T04:51:04.506Z,55.40
2018-06-02T04:53:32.075Z,52.90
2018-06-02T04:55:59.583Z,52.53
2018-06-02T04:58:27.117Z,51.37
2018-06-02T05:00:54.646Z,48.40
2018-06-02T05:03:22.194Z,52.83
2018-06-02T05:05:49.733Z,54.07
2018-06-02T05:08:17.262Z,54.70
2018-06-02T05:10:44.775Z,52.40
2018-06-02T05:13:12.323Z,54.90
2018-06-02T05:15:39.833Z,53.17
2018-06-02T05:18:07.366Z,50.53
2018-06-02T05:20:34.894Z,47.87
2018-06-02T05:23:02.402Z,50.63
2018-06-02T05:25:30.053Z,52.20
2018-06-02T05:27:57.563Z,52.90
2018-06-02T05:30:25.087Z,49.80
2018-06-02T05:32:52.619Z,50.57
2018-06-02T05:35:20.134Z,49.93
2018-06-02T05:37:48.134Z,54.73
2018-06-02T05:40:15.646Z,52.87
2018-06-02T05:42:43.157Z,46.90
2018-06-02T05:45:10.716Z,52.10
2018-06-02T05:47:38.252Z,50.20
2018-06-02T05:50:05.772Z,50.43
2018-06-02T05:52:33.306Z,47.33
2018-06-02T05:55:00.813Z,46.70
2018-06-02T05:57:28.354Z,50.80
2018-06-02T05:59:55.936Z,49.47
2018-06-02T06:02:23.442Z,48.40
2018-06-02T06:04:50.979Z,48.07
2018-06-02T06:07:18.496Z,45.00
2018-06-02T06:09:46.466Z,46.40
2018-06-02T06:12:13.979Z,48.50
2018-06-02T06:14:41.491Z,47.27
2018-06-02T06:17:09.027Z,49.57
2018-06-02T06:19:36.631Z,42.57
2018-06-02T06:22:04.121Z,45.17
2018-06-02T06:24:31.626Z,41.53
2018-06-02T06:26:59.346Z,46.57
2018-06-02T06:29:26.808Z,42.77
2018-06-02T06:31:54.310Z,45.80
2018-06-02T06:34:22.005Z,41.03
2018-06-02T06:36:49.518Z,45.10
2018-06-02T06:39:17.050Z,46.90
2018-06-02T06:41:44.603Z,48.63
2018-06-02T06:44:12.116Z,44.77
2018-06-02T06:46:39.618Z,45.70
2018-06-02T06:49:07.334Z,46.93
2018-06-02T06:51:34.847Z,44.73
2018-06-02T06:54:02.355Z,45.00
2018-06-02T06:56:29.901Z,48.87
2018-06-02T06:58:57.449Z,45.30
2018-06-02T07:01:24.986Z,46.40
2018-06-02T07:03:52.523Z,48.80
2018-06-02T07:06:20.056Z,45.80
2018-06-02T07:08:47.592Z,39.37
2018-06-02T07:11:15.135Z,47.67
2018-06-02T07:13:42.646Z,46.20
2018-06-02T07:16:10.207Z,47.67
2018-06-02T07:18:37.719Z,51.00
2018-06-02T07:21:05.241Z,43.43
2018-06-02T07:23:32.811Z,46.30
2018-06-02T07:26:00.319Z,49.03
2018-06-02T07:28:27.896Z,51.00
2018-06-02T07:30:55.779Z,48.70
2018-06-02T07:33:24.227Z,50.27
2018-06-02T07:35:51.734Z,47.17
2018-06-02T07:38:19.261Z,42.60
2018-06-02T07:40:46.766Z,43.27
2018-06-02T07:43:14.330Z,42.37
2018-06-02T07:45:41.848Z,41.43
2018-06-02T07:48:09.363Z,38.17
2018-06-02T07:50:36.890Z,42.90
2018-06-02T07:53:04.423Z,42.40
2018-06-02T07:55:31.959Z,37.77
2018-06-02T07:57:59.474Z,42.47
2018-06-02T08:00:27.020Z,43.70
2018-06-02T08:02:54.548Z,37.93
2018-06-02T08:05:22.084Z,38.57
2018-06-02T08:07:49.596Z,35.97
2018-06-02T08:10:17.258Z,40.27
2018-06-02T08:12:44.774Z,35.27
2018-06-02T08:15:12.299Z,31.87
2018-06-02T08:17:39.966Z,31.93
2018-06-02T08:20:07.483Z,29.10
2018-06-02T08:22:34.993Z,26.10
2018-06-02T08:25:02.526Z,26.97
2018-06-02T08:27:30.071Z,26.20
2018-06-02T08:29:57.591Z,25.80
2018-06-02T08:32:25.086Z,20.10
2018-06-02T08:34:52.800Z,20.50
2018-06-02T08:37:20.311Z,19.40
2018-06-02T08:39:47.824Z,20.67
2018-06-02T08:42:15.354Z,19.60
2018-06-02T08:44:42.961Z,17.57
2018-06-02T08:47:10.488Z,17.50
2018-06-02T08:49:37.990Z,17.63
2018-06-02T08:52:05.895Z,16.47
2018-06-02T08:54:33.404Z,17.30
2018-06-02T08:57:00.922Z,16.70
2018-06-02T08:59:28.455Z,18.43
2018-06-02T09:01:55.962Z,16.80
2018-06-02T09:04:23.511Z,15.70
2018-06-02T09:06:51.024Z,17.33
2018-06-02T09:09:18.536Z,18.43
2018-06-02T09:11:46.067Z,18.80
2018-06-02T09:14:13.566Z,19.17
2018-06-02T09:16:41.133Z,21.83
2018-06-02T09:19:08.639Z,22.50
2018-06-02T09:21:36.138Z,21.83
2018-06-02T09:24:03.668Z,25.07
2018-06-02T09:26:31.176Z,25.07
2018-06-02T09:28:58.703Z,27.50
2018-06-02T09:31:26.223Z,30.07
2018-06-02T09:33:53.750Z,31.00
2018-06-02T09:36:21.255Z,32.37
2018-06-02T09:38:48.980Z,35.77
2018-06-02T09:41:16.483Z,36.27
2018-06-02T09:43:43.996Z,38.00
2018-06-02T09:46:11.521Z,38.70
2018-06-02T09:48:39.042Z,43.70
2018-06-02T09:51:06.586Z,44.27
2018-06-02T09:53:34.115Z,42.00
2018-06-02T09:56:01.620Z,44.10
2018-06-02T09:58:29.146Z,41.90
2018-06-02T10:00:56.651Z,46.47
2018-06-02T10:03:24.307Z,40.67
2018-06-02T10:05:51.818Z,43.00
2018-06-02T10:08:19.331Z,43.20
2018-06-02T10:10:46.867Z,38.87
2018-06-02T10:13:14.382Z,39.03
2018-06-02T10:15:42.229Z,39.90
2018-06-02T10:18:09.729Z,42.53
2018-06-02T10:20:37.244Z,39.23
2018-06-02T10:23:04.977Z,39.40
2018-06-02T10:25:32.485Z,39.27
2018-06-02T10:28:00.001Z,38.20
2018-06-02T10:30:27.582Z,40.77
2018-06-02T10:32:55.096Z,40.40
2018-06-02T10:35:22.603Z,40.93
2018-06-02T10:37:50.174Z,40.13
2018-06-02T10:40:17.687Z,39.80
2018-06-02T10:42:45.188Z,39.93
2018-06-02T10:45:13.142Z,41.10
2018-06-02T10:47:40.641Z,37.87
2018-06-02T10:50:08.141Z,38.03
2018-06-02T10:52:35.662Z,35.70
2018-06-02T10:55:03.162Z,33.40
2018-06-02T10:57:31.747Z,35.97
2018-06-02T10:59:59.252Z,35.40
2018-06-02T11:02:26.746Z,34.30
2018-06-02T11:04:54.278Z,33.60
2018-06-02T11:07:21.797Z,35.10
2018-06-02T11:09:49.811Z,32.70
2018-06-02T11:12:17.354Z,34.10
2018-06-02T11:14:44.839Z,29.83
2018-06-02T11:17:12.491Z,29.30
2018-06-02T11:19:39.986Z,30.00
2018-06-02T11:22:07.497Z,32.27
2018-06-02T11:24:35.135Z,31.77
2018-06-02T11:27:02.638Z,30.30
2018-06-02T11:29:30.150Z,30.53
2018-06-02T11:31:57.673Z,26.73
2018-06-02T11:34:25.195Z,28.23
2018-06-02T11:36:53.104Z,26.80
2018-06-02T11:39:20.612Z,26.63
2018-06-02T11:41:48.118Z,28.50
2018-06-02T11:44:15.652Z,27.07
2018-06-02T11:46:43.210Z,28.30
2018-06-02T11:49:10.706Z,26.50
2018-06-02T11:51:38.211Z,27.27
2018-06-02T11:54:05.911Z,29.27
2018-06-02T11:56:33.421Z,28.77
2018-06-02T11:59:00.934Z,29.20
2018-06-02T12:01:28.449Z,27.90
2018-06-02T12:03:56.107Z,26.23
2018-06-02T12:06:23.609Z,28.30
2018-06-02T12:08:51.120Z,24.00
2018-06-02T12:11:18.679Z,25.40
2018-06-02T12:13:46.200Z,25.50
2018-06-02T12:16:13.697Z,24.50
2018-06-02T12:18:41.223Z,27.37
2018-06-02T12:21:08.733Z,27.73
2018-06-02T12:23:36.312Z,29.30
2018-06-02T12:26:03.806Z,28.40
2018-06-02T12:28:31.305Z,32.80
2018-06-02T12:30:59.007Z,31.00
2018-06-02T12:33:26.515Z,34.07
2018-06-02T12:35:54.018Z,29.40
2018-06-02T12:38:21.926Z,32.90
2018-06-02T12:40:49.431Z,29.83
2018-06-02T12:43:16.941Z,31.17
2018-06-02T12:45:44.621Z,31.50
2018-06-02T12:48:12.131Z,29.13
2018-06-02T12:50:39.662Z,34.50
2018-06-02T12:53:07.177Z,32.60
2018-06-02T12:55:34.693Z,34.20
2018-06-02T12:58:02.185Z,33.00
2018-06-02T13:00:29.711Z,33.27
2018-06-02T13:02:57.247Z,30.87
2018-06-02T13:05:24.842Z,32.90
2018-06-02T13:07:52.384Z,30.17
2018-06-02T13:10:19.903Z,30.87
2018-06-02T13:12:47.537Z,32.83
2018-06-02T13:15:15.033Z,31.40
2018-06-02T13:17:42.547Z,32.80
2018-06-02T13:20:10.261Z,29.30
2018-06-02T13:22:37.774Z,28.97
2018-06-02T13:25:05.270Z,29.27
2018-06-02T13:27:32.834Z,28.90
2018-06-02T13:30:00.335Z,28.27
2018-06-02T13:32:27.831Z,30.70
2018-06-02T13:34:55.354Z,28.50
2018-06-02T13:37:22.854Z,28.90
2018-06-02T13:39:50.374Z,27.90
2018-06-02T13:42:18.066Z,29.63
2018-06-02T13:44:45.566Z,28.40
2018-06-02T13:47:13.067Z,29.73
2018-06-02T13:49:40.595Z,29.30
2018-06-02T13:52:08.113Z,29.40
2018-06-02T13:54:35.614Z,31.47
2018-06-02T13:57:03.132Z,29.23
2018-06-02T13:59:30.626Z,27.63
2018-06-02T14:01:58.137Z,26.83
2018-06-02T14:04:25.624Z,28.90
2018-06-02T14:06:53.170Z,28.13
2018-06-02T14:09:20.677Z,29.80
2018-06-02T14:11:48.184Z,26.97
2018-06-02T14:14:15.719Z,26.70
2018-06-02T14:16:43.228Z,25.37
2018-06-02T14:19:10.741Z,24.43
2018-06-02T14:21:38.276Z,22.87
2018-06-02T14:24:05.775Z,20.30
2018-06-02T14:26:33.293Z,21.23
2018-06-02T14:29:00.848Z,22.37
2018-06-02T14:31:28.349Z,24.20
2018-06-02T14:33:55.846Z,21.50
2018-06-02T14:36:23.384Z,22.50
2018-06-02T14:38:50.885Z,22.10
2018-06-02T14:41:18.541Z,19.90
2018-06-02T14:43:46.042Z,24.10
2018-06-02T14:46:13.546Z,20.53
2018-06-02T14:48:41.061Z,23.20
2018-06-02T14:51:08.852Z,22.97
2018-06-02T14:53:36.359Z,22.33
2018-06-02T14:56:03.862Z,24.00
2018-06-02T14:58:31.458Z,27.83
2018-06-02T15:00:58.963Z,27.30
2018-06-02T15:03:26.490Z,24.67
2018-06-02T15:05:53.982Z,24.50
2018-06-02T15:08:21.496Z,24.33
2018-06-02T15:10:49.030Z,24.67
2018-06-02T15:13:16.558Z,25.30
2018-06-02T15:15:44.063Z,25.27
2018-06-02T15:18:11.730Z,24.37
2018-06-02T15:20:39.225Z,25.27
2018-06-02T15:23:06.718Z,28.17
2018-06-02T15:25:34.229Z,28.07
2018-06-02T15:28:02.230Z,28.33
2018-06-02T15:30:29.730Z,28.80
2018-06-02T15:32:57.225Z,30.43
2018-06-02T15:35:25.274Z,30.57
2018-06-02T15:37:52.785Z,30.40
2018-06-02T15:40:20.285Z,32.07
2018-06-02T15:42:47.805Z,33.57
2018-06-02T15:45:15.326Z,32.20
2018-06-02T15:47:43.023Z,35.80
2018-06-02T15:50:10.679Z,37.53
2018-06-02T15:52:38.182Z,35.70
2018-06-02T15:55:05.734Z,37.40
2018-06-02T15:57:33.250Z,35.43
2018-06-02T16:00:00.749Z,36.37
2018-06-02T16:02:28.271Z,33.93
2018-06-02T16:04:55.786Z,33.43
2018-06-02T16:07:23.314Z,30.87
2018-06-02T16:09:50.839Z,31.00
2018-06-02T16:12:18.342Z,31.30
2018-06-02T16:14:45.865Z,33.67
2018-06-02T16:17:13.597Z,34.37
2018-06-02T16:19:41.108Z,34.60
2018-06-02T16:22:08.612Z,34.23
2018-06-02T16:24:36.135Z,34.30
2018-06-02T16:27:03.649Z,31.40
2018-06-02T16:29:31.147Z,33.73
2018-06-02T16:31:58.669Z,32.87
2018-06-02T16:34:26.170Z,32.53
2018-06-02T16:36:53.697Z,31.90
2018-06-02T16:39:21.194Z,28.67
2018-06-02T16:41:48.685Z,31.00
2018-06-02T16:44:16.206Z,31.27
2018-06-02T16:46:43.715Z,29.67
2018-06-02T16:49:11.347Z,29.90
2018-06-02T16:51:38.837Z,30.53
2018-06-02T16:54:06.334Z,28.97
2018-06-02T16:56:33.849Z,27.77
2018-06-02T16:59:01.359Z,27.77
2018-06-02T17:01:28.877Z,31.10
2018-06-02T17:03:56.382Z,29.50
2018-06-02T17:06:24.351Z,28.17
2018-06-02T17:08:51.857Z,28.67
2018-06-02T17:11:19.354Z,28.63
2018-06-02T17:13:46.874Z,30.73
2018-06-02T17:16:14.385Z,28.20
2018-06-02T17:18:41.906Z,29.10
2018-06-02T17:21:09.411Z,28.03
2018-06-02T17:23:36.941Z,28.47
2018-06-02T17:26:04.441Z,24.27
2018-06-02T17:28:32.097Z,26.30
2018-06-02T17:30:59.598Z,24.60
2018-06-02T17:33:27.100Z,24.83
2018-06-02T17:35:54.630Z,24.10
2018-06-02T17:38:22.126Z,24.63
2018-06-02T17:40:50.190Z,24.40
2018-06-02T17:43:17.761Z,23.63
2018-06-02T17:45:45.270Z,24.00
2018-06-02T17:48:12.787Z,25.90
2018-06-02T17:50:40.290Z,25.10
2018-06-02T17:53:07.940Z,24.40
2018-06-02T17:55:35.438Z,27.03
2018-06-02T17:58:03.000Z,27.47
2018-06-02T18:00:30.498Z,27.33
2018-06-02T18:02:58.003Z,27.67
2018-06-02T18:05:25.571Z,24.80
2018-06-02T18:07:53.077Z,27.50
2018-06-02T18:10:20.587Z,25.73
2018-06-02T18:12:48.142Z,28.10
2018-06-02T18:15:15.637Z,26.93
2018-06-02T18:17:43.142Z,28.27
2018-06-02T18:20:11.031Z,27.67
2018-06-02T18:22:38.533Z,28.90
2018-06-02T18:25:06.039Z,28.67
2018-06-02T18:27:33.563Z,26.80
2018-06-02T18:30:01.102Z,28.77
2018-06-02T18:32:28.607Z,30.07
2018-06-02T18:34:56.474Z,29.83
2018-06-02T18:37:23.978Z,27.77
2018-06-02T18:39:51.482Z,27.37
2018-06-02T18:42:19.126Z,28.43
2018-06-02T18:44:46.654Z,29.93
2018-06-02T18:47:14.166Z,29.17
2018-06-02T18:49:41.813Z,26.67
2018-06-02T18:52:09.317Z,28.70
2018-06-02T18:54:36.809Z,29.83
2018-06-02T18:57:04.326Z,28.20
2018-06-02T18:59:32.253Z,30.00
2018-06-02T19:01:59.754Z,31.40
2018-06-02T19:04:27.254Z,29.80
2018-06-02T19:06:54.802Z,28.40
2018-06-02T19:09:22.315Z,31.07
2018-06-02T19:11:49.826Z,29.50
2018-06-02T19:14:17.853Z,31.27
2018-06-02T19:16:45.354Z,31.80
2018-06-02T19:19:12.862Z,32.40
2018-06-02T19:21:40.380Z,31.77
2018-06-02T19:24:07.902Z,28.77
2018-06-02T19:26:35.466Z,31.23
2018-06-02T19:29:02.966Z,29.60
2018-06-02T19:31:30.470Z,31.87
2018-06-02T19:33:58.010Z,28.33
2018-06-02T19:36:25.522Z,29.93
2018-06-02T19:38:53.033Z,30.37
2018-06-02T19:41:20.559Z,29.77
2018-06-02T19:43:48.063Z,31.07
2018-06-02T19:46:15.591Z,29.70
2018-06-02T19:48:43.094Z,30.03
2018-06-02T19:51:10.615Z,31.57
2018-06-02T19:53:38.320Z,31.03
2018-06-02T19:56:05.830Z,30.27
2018-06-02T19:58:33.398Z,31.13
2018-06-02T20:01:00.900Z,29.00
2018-06-02T20:03:28.402Z,30.47
2018-06-02T20:05:55.961Z,30.97
2018-06-02T20:08:23.458Z,30.50
2018-06-02T20:10:50.978Z,31.03
2018-06-02T20:13:18.899Z,32.03
2018-06-02T20:16:19.577Z,32.63
2018-06-02T20:18:48.078Z,31.90
2018-06-02T20:21:16.577Z,29.50
2018-06-02T20:23:45.066Z,30.30
2018-06-02T20:26:13.567Z,31.30
2018-06-02T20:28:42.077Z,32.27
2018-06-02T20:31:11.025Z,31.63
2018-06-02T20:33:39.548Z,29.10
2018-06-02T20:36:08.062Z,29.20
2018-06-02T20:38:36.614Z,28.47
2018-06-02T20:41:05.110Z,29.70
2018-06-02T20:43:33.675Z,27.80
2018-06-02T20:46:02.405Z,29.60
2018-06-02T20:48:30.913Z,30.63
2018-06-02T20:50:59.397Z,30.93
2018-06-02T20:53:28.342Z,30.90
2018-06-02T20:55:57.134Z,30.33
2018-06-02T20:58:25.670Z,33.20
2018-06-02T21:00:54.162Z,30.83
2018-06-02T21:03:22.771Z,31.17
2018-06-02T21:05:51.269Z,31.90
2018-06-02T21:08:19.761Z,32.00
2018-06-02T21:10:48.265Z,32.10
2018-06-02T21:13:16.744Z,30.43
2018-06-02T21:15:45.490Z,30.17
2018-06-02T21:18:13.949Z,29.43
2018-06-02T21:20:42.444Z,31.50
2018-06-02T21:23:11.171Z,29.43
2018-06-02T21:25:39.667Z,30.20
2018-06-02T21:28:08.287Z,30.70
2018-06-02T21:30:36.898Z,29.90
2018-06-02T21:33:05.420Z,33.70
2018-06-02T21:35:34.022Z,32.00
2018-06-02T21:38:02.533Z,38.20
2018-06-02T21:40:31.246Z,35.70
2018-06-02T21:42:59.735Z,34.67
2018-06-02T21:45:28.241Z,31.83
2018-06-02T21:47:57.139Z,31.80
2018-06-02T21:50:25.710Z,33.83
2018-06-02T21:52:54.194Z,32.77
2018-06-02T21:55:23.055Z,35.30
2018-06-02T21:57:51.534Z,33.13
2018-06-02T22:00:20.065Z,33.43
2018-06-02T22:02:48.549Z,34.30
2018-06-02T22:05:17.027Z,36.93
2018-06-02T22:07:45.582Z,35.70
2018-06-02T22:10:14.075Z,33.57
2018-06-02T22:12:43.114Z,29.50
2018-06-02T22:15:12.006Z,30.40
2018-06-02T22:17:40.480Z,34.37
2018-06-02T22:20:08.977Z,32.53
2018-06-02T22:22:37.497Z,31.23
2018-06-02T22:25:05.998Z,31.23
2018-06-02T22:27:34.460Z,30.67
2018-06-02T22:30:02.993Z,32.13
2018-06-02T22:32:31.510Z,30.93
2018-06-02T22:35:00.030Z,32.80
2018-06-02T22:37:28.677Z,31.10
2018-06-02T22:39:57.170Z,32.60
2018-06-02T22:42:25.674Z,36.30
2018-06-02T22:44:54.166Z,35.83
2018-06-02T22:47:22.688Z,37.38
2018-06-02T22:49:51.283Z,34.43
2018-06-02T22:52:19.787Z,36.83
2018-06-02T22:54:48.404Z,34.40
2018-06-02T22:57:17.061Z,32.60
2018-06-02T22:59:45.627Z,37.70
2018-06-02T23:02:14.551Z,38.50
2018-06-02T23:04:43.349Z,38.60
2018-06-02T23:07:12.045Z,38.63
2018-06-02T23:09:40.552Z,42.47
2018-06-02T23:12:09.026Z,38.27
2018-06-02T23:14:37.521Z,39.93
2018-06-02T23:17:06.078Z,38.10
2018-06-02T23:19:34.646Z,38.97
2018-06-02T23:22:03.317Z,35.97
2018-06-02T23:24:31.812Z,35.90
2018-06-02T23:27:00.304Z,36.17
2018-06-02T23:29:28.832Z,35.93
2018-06-02T23:31:57.367Z,39.00
2018-06-02T23:34:25.857Z,40.73
2018-06-02T23:36:54.338Z,37.60
2018-06-02T23:39:22.851Z,40.50
2018-06-02T23:41:51.339Z,39.27
2018-06-02T23:44:19.820Z,41.23
2018-06-02T23:46:48.304Z,41.47
2018-06-02T23:49:16.783Z,42.13
2018-06-02T23:51:45.269Z,44.27
2018-06-02T23:54:13.827Z,42.47
2018-06-02T23:56:42.338Z,42.87
2018-06-02T23:59:10.906Z,44.63
